Hlavní strana
METAR-TAF:

METAR-TAF

Letiště :

Tarvisio, Itálie

zeměpisná šířka: 46-30N, zeměpisná délka: 013-35E, výška: 777 m

Aktuální stav počasí

Zpráva byla vytvořena před 11 hodinami a 6 minutami, v 17:55 UTC
Bezvětří
Teplota 19°C
Vlhkost vzduchu 78%
Tlak 1020 hPa
Viditelnost 10 km a více
Skoro jasno ve výšce 3000 ft

METAR: LIVO 261755Z 00000KT 9999 FEW030 19/15 Q1020 RMK FEW VIS MIN 9999

Čas: 07:01 (05:01 UTC)


TAF: chybějící

Stav a předpovědi počasí z více než 4 000 letišť (zprávy METAR a TAF).

Červené a žluté tečky na mapě představují dostupné meteorologické stanice.

Když kurzor umístíte na tečku, zobrazí se název stanice.

Pak kliknutím zobrazíte stav a předpověď počasí.

Chcete-li změnit mapu, kliknutím na zelené tlačítko se znaménkem +mapu přiblížíte, kliknutím na zelené tlačítko se znaménkem – mapu oddálíte a kliknutím na zelené šipky přejdete na sousední mapy.


METAR-TAF: